PWSweather.com
Personal Weather Stations
Station Observations
PWSTHORN2
Thornton, Nh Usa, Thornton, NH 03285

Thornton, Nh UsaThornton, NH 03285

Lat: 43.8870699, Lon: -71.6632763

Elevation: 640

Station Type: Ambient WS 2080

High Low Average
Temperature 70.3°F21.3°C 48.2°F9.0°C 57.4°F14.1°C
Dew Point 56.7°F13.7°C 35.8°F2.1°C 44.5°F6.9°C
Winds 18.3 mph 29.5 kmh Calm Calm 3.0 mph S4.8 kmh S
Wind Gusts 28.2 mph45.4 kmh 1.6 mph2.6 kmh 7.0 mph11.3 kmh
Humidity 62% 62% 62%
Pressure 29.51 in999.3 mb 29.30 in992.2 mb -
Precipitation 0.04 in1.0 mm - -
Hour Temp Dew Point Humidity Winds Wind Gusts Pressure Precip Precip Rate Daily Precip Total
12:00 AM 48.6°F9.2°C 36.1°F2.3°C 62% 0.7 mph NW1.1 kmh NW 3.1 mph5.0 kmh 29.32 in992.9 mb 0.00 in0.0 mm 0.00 in0.0 mm 0.00 in0.0 mm
12:05 AM 48.6°F9.2°C 36.1°F2.3°C 62% 0.7 mph NW1.1 kmh NW 3.1 mph5.0 kmh 29.32 in992.9 mb 0.00 in0.0 mm 0.00 in0.0 mm 0.00 in0.0 mm
12:10 AM 48.7°F9.3°C 36.3°F2.4°C 62% Calm Calm 2.2 mph3.5 kmh 29.32 in992.9 mb 0.00 in0.0 mm 0.00 in0.0 mm 0.00 in0.0 mm
12:15 AM 48.7°F9.3°C 36.3°F2.4°C 62% 0.7 mph NW1.1 kmh NW 1.6 mph2.6 kmh 29.33 in993.2 mb 0.00 in0.0 mm 0.00 in0.0 mm 0.00 in0.0 mm
12:20 AM 48.7°F9.3°C 36.3°F2.4°C 62% 0.7 mph NW1.1 kmh NW 1.6 mph2.6 kmh 29.32 in992.9 mb 0.00 in0.0 mm 0.00 in0.0 mm 0.00 in0.0 mm
12:25 AM 48.9°F9.4°C 36.5°F2.5°C 62% Calm Calm 1.6 mph2.6 kmh 29.32 in992.9 mb 0.00 in0.0 mm 0.00 in0.0 mm 0.00 in0.0 mm
12:30 AM 48.9°F9.4°C 36.5°F2.5°C 62% 1.6 mph NW2.6 kmh NW 2.2 mph3.5 kmh 29.33 in993.2 mb 0.00 in0.0 mm 0.00 in0.0 mm 0.00 in0.0 mm
12:35 AM 48.9°F9.4°C 36.5°F2.5°C 62% Calm Calm 2.2 mph3.5 kmh 29.32 in992.9 mb 0.00 in0.0 mm 0.00 in0.0 mm 0.00 in0.0 mm
12:40 AM 48.9°F9.4°C 36.5°F2.5°C 62% Calm Calm 2.2 mph3.5 kmh 29.32 in992.9 mb 0.00 in0.0 mm 0.00 in0.0 mm 0.00 in0.0 mm
12:45 AM 48.9°F9.4°C 36.5°F2.5°C 62% Calm Calm 2.2 mph3.5 kmh 29.33 in993.2 mb 0.00 in0.0 mm 0.00 in0.0 mm 0.00 in0.0 mm
12:50 AM 48.9°F9.4°C 36.5°F2.5°C 62% Calm Calm 2.2 mph3.5 kmh 29.33 in993.2 mb 0.00 in0.0 mm 0.00 in0.0 mm 0.00 in0.0 mm
12:55 AM 48.7°F9.3°C 36.3°F2.4°C 62% 0.7 mph NW1.1 kmh NW 2.2 mph3.5 kmh 29.33 in993.2 mb 0.00 in0.0 mm 0.00 in0.0 mm 0.00 in0.0 mm
01:00 AM 48.6°F9.2°C 36.1°F2.3°C 62% Calm Calm 2.2 mph3.5 kmh 29.33 in993.2 mb 0.00 in0.0 mm 0.00 in0.0 mm 0.00 in0.0 mm
01:05 AM 48.6°F9.2°C 36.1°F2.3°C 62% Calm Calm 2.2 mph3.5 kmh 29.33 in993.2 mb 0.00 in0.0 mm 0.00 in0.0 mm 0.00 in0.0 mm
01:10 AM 48.6°F9.2°C 36.1°F2.3°C 62% Calm Calm 1.6 mph2.6 kmh 29.32 in992.9 mb 0.00 in0.0 mm 0.00 in0.0 mm 0.00 in0.0 mm
01:15 AM 48.6°F9.2°C 36.1°F2.3°C 62% 1.6 mph NW2.6 kmh NW 2.2 mph3.5 kmh 29.33 in993.2 mb 0.00 in0.0 mm 0.00 in0.0 mm 0.00 in0.0 mm
01:20 AM 48.4°F9.1°C 36.0°F2.2°C 62% Calm Calm 3.1 mph5.0 kmh 29.33 in993.2 mb 0.00 in0.0 mm 0.00 in0.0 mm 0.00 in0.0 mm
01:25 AM 48.4°F9.1°C 36.0°F2.2°C 62% Calm Calm 3.1 mph5.0 kmh 29.33 in993.2 mb 0.00 in0.0 mm 0.00 in0.0 mm 0.00 in0.0 mm
01:30 AM 48.2°F9.0°C 35.8°F2.1°C 62% 0.7 mph NW1.1 kmh NW 1.6 mph2.6 kmh 29.32 in992.9 mb 0.00 in0.0 mm 0.00 in0.0 mm 0.00 in0.0 mm
01:35 AM 48.4°F9.1°C 36.0°F2.2°C 62% Calm Calm 1.6 mph2.6 kmh 29.32 in992.9 mb 0.00 in0.0 mm 0.00 in0.0 mm 0.00 in0.0 mm
01:40 AM 48.4°F9.1°C 36.0°F2.2°C 62% 1.6 mph NW2.6 kmh NW 3.1 mph5.0 kmh 29.33 in993.2 mb 0.00 in0.0 mm 0.00 in0.0 mm 0.00 in0.0 mm
01:45 AM 48.6°F9.2°C 36.1°F2.3°C 62% Calm Calm 3.1 mph5.0 kmh 29.33 in993.2 mb 0.00 in0.0 mm 0.00 in0.0 mm 0.00 in0.0 mm
01:50 AM 48.7°F9.3°C 36.3°F2.4°C 62% 0.7 mph NW1.1 kmh NW 1.6 mph2.6 kmh 29.32 in992.9 mb 0.00 in0.0 mm 0.00 in0.0 mm 0.00 in0.0 mm
01:55 AM 48.7°F9.3°C 36.3°F2.4°C 62% Calm Calm 1.6 mph2.6 kmh 29.33 in993.2 mb 0.00 in0.0 mm 0.00 in0.0 mm 0.00 in0.0 mm
02:00 AM 48.7°F9.3°C 36.3°F2.4°C 62% Calm Calm 1.6 mph2.6 kmh 29.32 in992.9 mb 0.00 in0.0 mm 0.00 in0.0 mm 0.00 in0.0 mm
02:05 AM 48.7°F9.3°C 36.3°F2.4°C 62% Calm Calm 1.6 mph2.6 kmh 29.31 in992.6 mb 0.00 in0.0 mm 0.00 in0.0 mm 0.00 in0.0 mm
02:10 AM 48.7°F9.3°C 36.3°F2.4°C 62% 1.6 mph NW2.6 kmh NW 2.2 mph3.5 kmh 29.31 in992.6 mb 0.00 in0.0 mm 0.00 in0.0 mm 0.00 in0.0 mm
02:15 AM 48.7°F9.3°C 36.3°F2.4°C 62% Calm Calm 2.2 mph3.5 kmh 29.31 in992.6 mb 0.00 in0.0 mm 0.00 in0.0 mm 0.00 in0.0 mm
02:20 AM 48.9°F9.4°C 36.5°F2.5°C 62% 1.6 mph NW2.6 kmh NW 2.2 mph3.5 kmh 29.32 in992.9 mb 0.00 in0.0 mm 0.00 in0.0 mm 0.00 in0.0 mm
02:25 AM 48.9°F9.4°C 36.5°F2.5°C 62% Calm Calm 2.2 mph3.5 kmh 29.31 in992.6 mb 0.00 in0.0 mm 0.00 in0.0 mm 0.00 in0.0 mm
02:30 AM 48.9°F9.4°C 36.5°F2.5°C 62% Calm Calm 2.2 mph3.5 kmh 29.31 in992.6 mb 0.00 in0.0 mm 0.00 in0.0 mm 0.00 in0.0 mm
02:35 AM 48.7°F9.3°C 36.3°F2.4°C 62% Calm Calm 1.6 mph2.6 kmh 29.30 in992.2 mb 0.00 in0.0 mm 0.00 in0.0 mm 0.00 in0.0 mm
02:40 AM 48.7°F9.3°C 36.3°F2.4°C 62% 0.7 mph NW1.1 kmh NW 2.2 mph3.5 kmh 29.30 in992.2 mb 0.00 in0.0 mm 0.00 in0.0 mm 0.00 in0.0 mm
02:45 AM 48.9°F9.4°C 36.5°F2.5°C 62% 3.1 mph NW5.0 kmh NW 3.8 mph6.1 kmh 29.32 in992.9 mb 0.00 in0.0 mm 0.00 in0.0 mm 0.00 in0.0 mm
02:50 AM 48.9°F9.4°C 36.5°F2.5°C 62% Calm Calm 3.8 mph6.1 kmh 29.32 in992.9 mb 0.00 in0.0 mm 0.00 in0.0 mm 0.00 in0.0 mm
02:55 AM 48.9°F9.4°C 36.5°F2.5°C 62% 1.6 mph NW2.6 kmh NW 3.8 mph6.1 kmh 29.31 in992.6 mb 0.00 in0.0 mm 0.00 in0.0 mm 0.00 in0.0 mm
03:00 AM 48.9°F9.4°C 36.5°F2.5°C 62% 0.7 mph NW1.1 kmh NW 2.2 mph3.5 kmh 29.31 in992.6 mb 0.00 in0.0 mm 0.00 in0.0 mm 0.00 in0.0 mm
03:05 AM 48.9°F9.4°C 36.5°F2.5°C 62% 0.7 mph NW1.1 kmh NW 2.2 mph3.5 kmh 29.32 in992.9 mb 0.00 in0.0 mm 0.00 in0.0 mm 0.00 in0.0 mm
03:10 AM 48.9°F9.4°C 36.5°F2.5°C 62% Calm Calm 2.2 mph3.5 kmh 29.32 in992.9 mb 0.00 in0.0 mm 0.00 in0.0 mm 0.00 in0.0 mm
03:15 AM 48.9°F9.4°C 36.5°F2.5°C 62% 0.7 mph NW1.1 kmh NW 1.6 mph2.6 kmh 29.32 in992.9 mb 0.00 in0.0 mm 0.00 in0.0 mm 0.00 in0.0 mm
03:20 AM 48.9°F9.4°C 36.5°F2.5°C 62% Calm Calm 1.6 mph2.6 kmh 29.32 in992.9 mb 0.00 in0.0 mm 0.00 in0.0 mm 0.00 in0.0 mm
03:25 AM 49.1°F9.5°C 36.7°F2.6°C 62% Calm Calm 1.6 mph2.6 kmh 29.33 in993.2 mb 0.00 in0.0 mm 0.00 in0.0 mm 0.00 in0.0 mm
03:30 AM 49.1°F9.5°C 36.7°F2.6°C 62% Calm Calm 1.6 mph2.6 kmh 29.32 in992.9 mb 0.00 in0.0 mm 0.00 in0.0 mm 0.00 in0.0 mm
03:35 AM 49.1°F9.5°C 36.7°F2.6°C 62% Calm Calm 1.6 mph2.6 kmh 29.32 in992.9 mb 0.00 in0.0 mm 0.00 in0.0 mm 0.00 in0.0 mm
03:40 AM 49.1°F9.5°C 36.7°F2.6°C 62% Calm Calm 1.6 mph2.6 kmh 29.32 in992.9 mb 0.00 in0.0 mm 0.00 in0.0 mm 0.00 in0.0 mm
03:45 AM 48.9°F9.4°C 36.5°F2.5°C 62% Calm Calm 2.2 mph3.5 kmh 29.32 in992.9 mb 0.00 in0.0 mm 0.00 in0.0 mm 0.00 in0.0 mm
03:50 AM 49.1°F9.5°C 36.7°F2.6°C 62% Calm Calm 2.2 mph3.5 kmh 29.33 in993.2 mb 0.00 in0.0 mm 0.00 in0.0 mm 0.00 in0.0 mm
03:55 AM 49.1°F9.5°C 36.7°F2.6°C 62% 0.7 mph NW1.1 kmh NW 1.6 mph2.6 kmh 29.33 in993.2 mb 0.00 in0.0 mm 0.00 in0.0 mm 0.00 in0.0 mm
04:00 AM 49.1°F9.5°C 36.7°F2.6°C 62% Calm Calm 2.2 mph3.5 kmh 29.33 in993.2 mb 0.00 in0.0 mm 0.00 in0.0 mm 0.00 in0.0 mm
04:05 AM 49.1°F9.5°C 36.7°F2.6°C 62% 0.7 mph NW1.1 kmh NW 2.2 mph3.5 kmh 29.33 in993.2 mb 0.00 in0.0 mm 0.00 in0.0 mm 0.00 in0.0 mm
04:10 AM 49.1°F9.5°C 36.7°F2.6°C 62% 0.7 mph NW1.1 kmh NW 3.1 mph5.0 kmh 29.34 in993.6 mb 0.00 in0.0 mm 0.00 in0.0 mm 0.00 in0.0 mm
04:15 AM 49.1°F9.5°C 36.7°F2.6°C 62% Calm Calm 3.1 mph5.0 kmh 29.33 in993.2 mb 0.00 in0.0 mm 0.00 in0.0 mm 0.00 in0.0 mm
04:20 AM 49.1°F9.5°C 36.7°F2.6°C 62% Calm Calm 2.2 mph3.5 kmh 29.33 in993.2 mb 0.00 in0.0 mm 0.00 in0.0 mm 0.00 in0.0 mm
04:25 AM 49.1°F9.5°C 36.7°F2.6°C 62% Calm Calm 1.6 mph2.6 kmh 29.33 in993.2 mb 0.00 in0.0 mm 0.00 in0.0 mm 0.00 in0.0 mm
04:30 AM 49.1°F9.5°C 36.7°F2.6°C 62% Calm Calm 1.6 mph2.6 kmh 29.32 in992.9 mb 0.00 in0.0 mm 0.00 in0.0 mm 0.00 in0.0 mm
04:35 AM 49.1°F9.5°C 36.7°F2.6°C 62% Calm Calm 1.6 mph2.6 kmh 29.32 in992.9 mb 0.00 in0.0 mm 0.00 in0.0 mm 0.00 in0.0 mm
04:40 AM 49.3°F9.6°C 36.8°F2.7°C 62% 1.6 mph NW2.6 kmh NW 2.2 mph3.5 kmh 29.32 in992.9 mb 0.00 in0.0 mm 0.00 in0.0 mm 0.00 in0.0 mm
04:45 AM 49.3°F9.6°C 36.8°F2.7°C 62% 0.7 mph NW1.1 kmh NW 2.2 mph3.5 kmh 29.33 in993.2 mb 0.00 in0.0 mm 0.00 in0.0 mm 0.00 in0.0 mm
04:50 AM 49.5°F9.7°C 37.0°F2.8°C 62% 0.7 mph NW1.1 kmh NW 2.2 mph3.5 kmh 29.33 in993.2 mb 0.00 in0.0 mm 0.00 in0.0 mm 0.00 in0.0 mm
04:55 AM 49.5°F9.7°C 37.0°F2.8°C 62% Calm Calm 1.6 mph2.6 kmh 29.32 in992.9 mb 0.00 in0.0 mm 0.00 in0.0 mm 0.00 in0.0 mm
05:00 AM 49.6°F9.8°C 37.2°F2.9°C 62% Calm Calm 1.6 mph2.6 kmh 29.33 in993.2 mb 0.00 in0.0 mm 0.00 in0.0 mm 0.00 in0.0 mm
05:05 AM 49.6°F9.8°C 37.2°F2.9°C 62% Calm Calm 1.6 mph2.6 kmh 29.32 in992.9 mb 0.00 in0.0 mm 0.00 in0.0 mm 0.00 in0.0 mm
05:10 AM 49.6°F9.8°C 37.2°F2.9°C 62% Calm Calm 1.6 mph2.6 kmh 29.33 in993.2 mb 0.00 in0.0 mm 0.00 in0.0 mm 0.00 in0.0 mm
05:15 AM 49.8°F9.9°C 37.3°F2.9°C 62% Calm Calm 2.2 mph3.5 kmh 29.32 in992.9 mb 0.00 in0.0 mm 0.00 in0.0 mm 0.00 in0.0 mm
05:20 AM 49.8°F9.9°C 37.3°F2.9°C 62% Calm Calm 2.2 mph3.5 kmh 29.33 in993.2 mb 0.00 in0.0 mm 0.00 in0.0 mm 0.00 in0.0 mm
05:25 AM 49.8°F9.9°C 37.3°F2.9°C 62% Calm Calm 1.6 mph2.6 kmh 29.33 in993.2 mb 0.00 in0.0 mm 0.00 in0.0 mm 0.00 in0.0 mm
05:30 AM 50.0°F10.0°C 37.5°F3.1°C 62% 0.7 mph NW1.1 kmh NW 2.2 mph3.5 kmh 29.33 in993.2 mb 0.00 in0.0 mm 0.00 in0.0 mm 0.00 in0.0 mm
05:35 AM 50.2°F10.1°C 37.7°F3.2°C 62% 0.7 mph NW1.1 kmh NW 2.2 mph3.5 kmh 29.33 in993.2 mb 0.00 in0.0 mm 0.00 in0.0 mm 0.00 in0.0 mm
05:40 AM 50.2°F10.1°C 37.7°F3.2°C 62% Calm Calm 2.2 mph3.5 kmh 29.33 in993.2 mb 0.00 in0.0 mm 0.00 in0.0 mm 0.00 in0.0 mm
05:45 AM 50.4°F10.2°C 37.8°F3.2°C 62% Calm Calm 2.2 mph3.5 kmh 29.32 in992.9 mb 0.00 in0.0 mm 0.00 in0.0 mm 0.00 in0.0 mm
05:50 AM 50.5°F10.3°C 38.0°F3.3°C 62% Calm Calm 1.6 mph2.6 kmh 29.32 in992.9 mb 0.00 in0.0 mm 0.00 in0.0 mm 0.00 in0.0 mm
05:55 AM 50.9°F10.5°C 38.4°F3.6°C 62% Calm Calm 1.6 mph2.6 kmh 29.32 in992.9 mb 0.00 in0.0 mm 0.00 in0.0 mm 0.00 in0.0 mm
06:00 AM 50.9°F10.5°C 38.4°F3.6°C 62% 0.7 mph NW1.1 kmh NW 2.2 mph3.5 kmh 29.33 in993.2 mb 0.00 in0.0 mm 0.00 in0.0 mm 0.00 in0.0 mm
06:05 AM 50.9°F10.5°C 38.4°F3.6°C 62% 1.6 mph NW2.6 kmh NW 2.2 mph3.5 kmh 29.33 in993.2 mb 0.00 in0.0 mm 0.00 in0.0 mm 0.00 in0.0 mm
06:10 AM 50.9°F10.5°C 38.4°F3.6°C 62% 0.7 mph NW1.1 kmh NW 2.2 mph3.5 kmh 29.34 in993.6 mb 0.00 in0.0 mm 0.00 in0.0 mm 0.00 in0.0 mm
06:15 AM 51.1°F10.6°C 38.5°F3.6°C 62% Calm Calm 2.2 mph3.5 kmh 29.33 in993.2 mb 0.00 in0.0 mm 0.00 in0.0 mm 0.00 in0.0 mm
06:20 AM 51.3°F10.7°C 38.7°F3.7°C 62% Calm Calm 2.2 mph3.5 kmh 29.33 in993.2 mb 0.00 in0.0 mm 0.00 in0.0 mm 0.00 in0.0 mm
06:25 AM 51.4°F10.8°C 38.9°F3.8°C 62% Calm Calm 1.6 mph2.6 kmh 29.34 in993.6 mb 0.00 in0.0 mm 0.00 in0.0 mm 0.00 in0.0 mm
06:30 AM 51.8°F11.0°C 39.2°F4.0°C 62% Calm Calm 1.6 mph2.6 kmh 29.34 in993.6 mb 0.00 in0.0 mm 0.00 in0.0 mm 0.00 in0.0 mm
06:35 AM 52.0°F11.1°C 39.4°F4.1°C 62% Calm Calm 1.6 mph2.6 kmh 29.34 in993.6 mb 0.00 in0.0 mm 0.00 in0.0 mm 0.00 in0.0 mm
06:40 AM 52.0°F11.1°C 39.4°F4.1°C 62% Calm Calm 1.6 mph2.6 kmh 29.34 in993.6 mb 0.00 in0.0 mm 0.00 in0.0 mm 0.00 in0.0 mm
06:45 AM 52.2°F11.2°C 39.5°F4.2°C 62% Calm Calm 1.6 mph2.6 kmh 29.34 in993.6 mb 0.00 in0.0 mm 0.00 in0.0 mm 0.00 in0.0 mm
06:50 AM 52.3°F11.3°C 39.7°F4.3°C 62% Calm Calm 1.6 mph2.6 kmh 29.34 in993.6 mb 0.00 in0.0 mm 0.00 in0.0 mm 0.00 in0.0 mm
06:55 AM 52.5°F11.4°C 39.9°F4.4°C 62% 0.7 mph NW1.1 kmh NW 1.6 mph2.6 kmh 29.34 in993.6 mb 0.00 in0.0 mm 0.00 in0.0 mm 0.00 in0.0 mm
07:00 AM 52.9°F11.6°C 40.2°F4.6°C 62% Calm Calm 1.6 mph2.6 kmh 29.34 in993.6 mb 0.00 in0.0 mm 0.00 in0.0 mm 0.00 in0.0 mm
07:05 AM 52.9°F11.6°C 40.2°F4.6°C 62% Calm Calm 2.2 mph3.5 kmh 29.34 in993.6 mb 0.00 in0.0 mm 0.00 in0.0 mm 0.00 in0.0 mm
07:10 AM 52.9°F11.6°C 40.2°F4.6°C 62% 0.7 mph NW1.1 kmh NW 3.1 mph5.0 kmh 29.34 in993.6 mb 0.00 in0.0 mm 0.00 in0.0 mm 0.00 in0.0 mm
07:15 AM 52.9°F11.6°C 40.2°F4.6°C 62% 1.6 mph NW2.6 kmh NW 3.1 mph5.0 kmh 29.34 in993.6 mb 0.00 in0.0 mm 0.00 in0.0 mm 0.00 in0.0 mm
07:20 AM 52.9°F11.6°C 40.2°F4.6°C 62% Calm Calm 3.8 mph6.1 kmh 29.34 in993.6 mb 0.00 in0.0 mm 0.00 in0.0 mm 0.00 in0.0 mm
07:25 AM 52.9°F11.6°C 40.2°F4.6°C 62% Calm Calm 3.8 mph6.1 kmh 29.34 in993.6 mb 0.00 in0.0 mm 0.00 in0.0 mm 0.00 in0.0 mm
07:30 AM 53.1°F11.7°C 40.4°F4.7°C 62% 0.7 mph NW1.1 kmh NW 1.6 mph2.6 kmh 29.34 in993.6 mb 0.00 in0.0 mm 0.00 in0.0 mm 0.00 in0.0 mm
07:35 AM 53.2°F11.8°C 40.6°F4.8°C 62% Calm Calm 3.1 mph5.0 kmh 29.34 in993.6 mb 0.00 in0.0 mm 0.00 in0.0 mm 0.00 in0.0 mm
07:40 AM 53.6°F12.0°C 40.9°F4.9°C 62% 1.6 mph NW2.6 kmh NW 3.1 mph5.0 kmh 29.34 in993.6 mb 0.00 in0.0 mm 0.00 in0.0 mm 0.00 in0.0 mm
07:45 AM 53.8°F12.1°C 41.1°F5.1°C 62% 0.7 mph NW1.1 kmh NW 3.1 mph5.0 kmh 29.34 in993.6 mb 0.00 in0.0 mm 0.00 in0.0 mm 0.00 in0.0 mm
07:50 AM 54.0°F12.2°C 41.2°F5.1°C 62% Calm Calm 3.1 mph5.0 kmh 29.34 in993.6 mb 0.00 in0.0 mm 0.00 in0.0 mm 0.00 in0.0 mm
07:55 AM 54.1°F12.3°C 41.4°F5.2°C 62% 0.7 mph NW1.1 kmh NW 1.6 mph2.6 kmh 29.34 in993.6 mb 0.00 in0.0 mm 0.00 in0.0 mm 0.00 in0.0 mm
08:00 AM 54.3°F12.4°C 41.6°F5.3°C 62% Calm Calm 3.1 mph5.0 kmh 29.34 in993.6 mb 0.00 in0.0 mm 0.00 in0.0 mm 0.00 in0.0 mm
08:05 AM 54.3°F12.4°C 41.6°F5.3°C 62% 1.6 mph NW2.6 kmh NW 3.1 mph5.0 kmh 29.34 in993.6 mb 0.00 in0.0 mm 0.00 in0.0 mm 0.00 in0.0 mm
08:10 AM 54.5°F12.5°C 41.8°F5.4°C 62% 1.6 mph NW2.6 kmh NW 3.1 mph5.0 kmh 29.34 in993.6 mb 0.00 in0.0 mm 0.00 in0.0 mm 0.00 in0.0 mm
08:15 AM 54.7°F12.6°C 41.9°F5.5°C 62% 0.7 mph NW1.1 kmh NW 3.8 mph6.1 kmh 29.33 in993.2 mb 0.00 in0.0 mm 0.00 in0.0 mm 0.00 in0.0 mm
08:20 AM 55.2°F12.9°C 42.4°F5.8°C 62% 0.7 mph NW1.1 kmh NW 3.8 mph6.1 kmh 29.33 in993.2 mb 0.00 in0.0 mm 0.00 in0.0 mm 0.00 in0.0 mm
08:25 AM 55.8°F13.2°C 42.9°F6.1°C 62% 3.1 mph NW5.0 kmh NW 4.5 mph7.2 kmh 29.33 in993.2 mb 0.00 in0.0 mm 0.00 in0.0 mm 0.00 in0.0 mm
08:30 AM 55.6°F13.1°C 42.8°F6.0°C 62% 1.6 mph NW2.6 kmh NW 5.4 mph8.7 kmh 29.34 in993.6 mb 0.00 in0.0 mm 0.00 in0.0 mm 0.00 in0.0 mm
08:35 AM 55.9°F13.3°C 43.1°F6.2°C 62% 3.8 mph NW6.1 kmh NW 6.0 mph9.7 kmh 29.33 in993.2 mb 0.00 in0.0 mm 0.00 in0.0 mm 0.00 in0.0 mm
08:40 AM 56.3°F13.5°C 43.5°F6.4°C 62% Calm Calm 6.0 mph9.7 kmh 29.33 in993.2 mb 0.00 in0.0 mm 0.00 in0.0 mm 0.00 in0.0 mm
08:45 AM 57.2°F14.0°C 44.3°F6.8°C 62% 3.8 mph NW6.1 kmh NW 6.0 mph9.7 kmh 29.33 in993.2 mb 0.00 in0.0 mm 0.00 in0.0 mm 0.00 in0.0 mm
08:50 AM 57.4°F14.1°C 44.5°F6.9°C 62% 1.6 mph NE2.6 kmh NE 6.0 mph9.7 kmh 29.33 in993.2 mb 0.00 in0.0 mm 0.00 in0.0 mm 0.00 in0.0 mm
08:55 AM 57.4°F14.1°C 44.5°F6.9°C 62% 5.4 mph E8.7 kmh E 9.2 mph14.8 kmh 29.33 in993.2 mb 0.00 in0.0 mm 0.00 in0.0 mm 0.00 in0.0 mm
09:00 AM 57.2°F14.0°C 44.3°F6.8°C 62% 1.6 mph E2.6 kmh E 9.2 mph14.8 kmh 29.34 in993.6 mb 0.00 in0.0 mm 0.00 in0.0 mm 0.00 in0.0 mm
09:05 AM 57.6°F14.2°C 44.7°F7.1°C 62% 5.4 mph NE8.7 kmh NE 9.2 mph14.8 kmh 29.33 in993.2 mb 0.00 in0.0 mm 0.00 in0.0 mm 0.00 in0.0 mm
09:10 AM 57.6°F14.2°C 44.7°F7.1°C 62% 2.2 mph NE3.5 kmh NE 8.3 mph13.4 kmh 29.33 in993.2 mb 0.00 in0.0 mm 0.00 in0.0 mm 0.00 in0.0 mm
09:15 AM 57.4°F14.1°C 44.5°F6.9°C 62% 1.6 mph NE2.6 kmh NE 8.3 mph13.4 kmh 29.33 in993.2 mb 0.00 in0.0 mm 0.00 in0.0 mm 0.00 in0.0 mm
09:20 AM 57.4°F14.1°C 44.5°F6.9°C 62% 2.2 mph NE3.5 kmh NE 6.0 mph9.7 kmh 29.34 in993.6 mb 0.00 in0.0 mm 0.00 in0.0 mm 0.00 in0.0 mm
09:25 AM 57.4°F14.1°C 44.5°F6.9°C 62% 1.6 mph NE2.6 kmh NE 4.5 mph7.2 kmh 29.34 in993.6 mb 0.00 in0.0 mm 0.00 in0.0 mm 0.00 in0.0 mm
09:30 AM 57.4°F14.1°C 44.5°F6.9°C 62% 1.6 mph NE2.6 kmh NE 4.5 mph7.2 kmh 29.34 in993.6 mb 0.00 in0.0 mm 0.00 in0.0 mm 0.00 in0.0 mm
09:35 AM 57.4°F14.1°C 44.5°F6.9°C 62% 0.7 mph NE1.1 kmh NE 4.5 mph7.2 kmh 29.34 in993.6 mb 0.00 in0.0 mm 0.00 in0.0 mm 0.00 in0.0 mm
09:40 AM 57.7°F14.3°C 44.8°F7.1°C 62% 3.1 mph NE5.0 kmh NE 4.5 mph7.2 kmh 29.34 in993.6 mb 0.00 in0.0 mm 0.00 in0.0 mm 0.00 in0.0 mm
09:45 AM 58.3°F14.6°C 45.3°F7.4°C 62% 2.2 mph NE3.5 kmh NE 4.5 mph7.2 kmh 29.33 in993.2 mb 0.00 in0.0 mm 0.00 in0.0 mm 0.00 in0.0 mm
09:50 AM 57.9°F14.4°C 45.0°F7.2°C 62% 4.5 mph NE7.2 kmh NE 6.0 mph9.7 kmh 29.34 in993.6 mb 0.00 in0.0 mm 0.00 in0.0 mm 0.00 in0.0 mm
09:55 AM 57.6°F14.2°C 44.7°F7.1°C 62% 1.6 mph NE2.6 kmh NE 6.0 mph9.7 kmh 29.33 in993.2 mb 0.00 in0.0 mm 0.00 in0.0 mm 0.00 in0.0 mm
10:00 AM 57.6°F14.2°C 44.7°F7.1°C 62% 0.7 mph NE1.1 kmh NE 5.4 mph8.7 kmh 29.33 in993.2 mb 0.00 in0.0 mm 0.00 in0.0 mm 0.00 in0.0 mm
10:05 AM 57.6°F14.2°C 44.7°F7.1°C 62% 2.2 mph NE3.5 kmh NE 3.8 mph6.1 kmh 29.34 in993.6 mb 0.00 in0.0 mm 0.00 in0.0 mm 0.00 in0.0 mm
10:10 AM 57.7°F14.3°C 44.8°F7.1°C 62% 0.7 mph NE1.1 kmh NE 3.8 mph6.1 kmh 29.34 in993.6 mb 0.00 in0.0 mm 0.00 in0.0 mm 0.00 in0.0 mm
10:15 AM 59.2°F15.1°C 46.2°F7.9°C 62% 2.2 mph NE3.5 kmh NE 3.8 mph6.1 kmh 29.33 in993.2 mb 0.00 in0.0 mm 0.00 in0.0 mm 0.00 in0.0 mm
10:20 AM 59.9°F15.5°C 46.9°F8.3°C 62% 1.6 mph NE2.6 kmh NE 3.8 mph6.1 kmh 29.33 in993.2 mb 0.00 in0.0 mm 0.00 in0.0 mm 0.00 in0.0 mm
10:25 AM 61.0°F16.1°C 47.9°F8.8°C 62% Calm Calm 4.5 mph7.2 kmh 29.33 in993.2 mb 0.00 in0.0 mm 0.00 in0.0 mm 0.00 in0.0 mm
10:30 AM 63.9°F17.7°C 50.6°F10.3°C 62% 2.2 mph NE3.5 kmh NE 4.5 mph7.2 kmh 29.33 in993.2 mb 0.00 in0.0 mm 0.00 in0.0 mm 0.00 in0.0 mm
10:35 AM 64.9°F18.3°C 51.6°F10.9°C 62% 3.1 mph NE5.0 kmh NE 4.5 mph7.2 kmh 29.32 in992.9 mb 0.00 in0.0 mm 0.00 in0.0 mm 0.00 in0.0 mm
10:40 AM 66.0°F18.9°C 52.6°F11.4°C 62% 0.7 mph NNE1.1 kmh NNE 4.5 mph7.2 kmh 29.32 in992.9 mb 0.00 in0.0 mm 0.00 in0.0 mm 0.00 in0.0 mm
10:45 AM 65.5°F18.6°C 52.1°F11.2°C 62% 0.7 mph NNE1.1 kmh NNE 4.5 mph7.2 kmh 29.32 in992.9 mb 0.00 in0.0 mm 0.00 in0.0 mm 0.00 in0.0 mm
10:50 AM 67.6°F19.8°C 54.2°F12.3°C 62% 1.6 mph N2.6 kmh N 6.0 mph9.7 kmh 29.32 in992.9 mb 0.00 in0.0 mm 0.00 in0.0 mm 0.00 in0.0 mm
10:55 AM 70.0°F21.1°C 56.4°F13.6°C 62% 3.1 mph N5.0 kmh N 6.0 mph9.7 kmh 29.31 in992.6 mb 0.00 in0.0 mm 0.00 in0.0 mm 0.00 in0.0 mm
11:00 AM 70.0°F21.1°C 56.4°F13.6°C 62% 3.8 mph NNW6.1 kmh NNW 7.6 mph12.2 kmh 29.30 in992.2 mb 0.00 in0.0 mm 0.00 in0.0 mm 0.00 in0.0 mm
11:05 AM 68.4°F20.2°C 54.9°F12.7°C 62% 3.1 mph NNE5.0 kmh NNE 7.6 mph12.2 kmh 29.31 in992.6 mb 0.00 in0.0 mm 0.00 in0.0 mm 0.00 in0.0 mm
11:10 AM 68.4°F20.2°C 54.9°F12.7°C 62% 2.2 mph NE3.5 kmh NE 5.4 mph8.7 kmh 29.30 in992.2 mb 0.00 in0.0 mm 0.00 in0.0 mm 0.00 in0.0 mm
11:15 AM 68.4°F20.2°C 54.9°F12.7°C 62% 2.2 mph NE3.5 kmh NE 8.3 mph13.4 kmh 29.31 in992.6 mb 0.00 in0.0 mm 0.00 in0.0 mm 0.00 in0.0 mm
11:20 AM 69.1°F20.6°C 55.5°F13.1°C 62% 3.1 mph NNE5.0 kmh NNE 8.3 mph13.4 kmh 29.30 in992.2 mb 0.00 in0.0 mm 0.00 in0.0 mm 0.00 in0.0 mm
11:25 AM 68.4°F20.2°C 54.9°F12.7°C 62% 2.2 mph NE3.5 kmh NE 14.5 mph23.3 kmh 29.30 in992.2 mb 0.00 in0.0 mm 0.00 in0.0 mm 0.00 in0.0 mm
11:30 AM 67.8°F19.9°C 54.3°F12.4°C 62% 4.5 mph NE7.2 kmh NE 14.5 mph23.3 kmh 29.31 in992.6 mb 0.00 in0.0 mm 0.00 in0.0 mm 0.00 in0.0 mm
11:35 AM 67.8°F19.9°C 54.3°F12.4°C 62% 2.2 mph NE3.5 kmh NE 8.3 mph13.4 kmh 29.31 in992.6 mb 0.00 in0.0 mm 0.00 in0.0 mm 0.00 in0.0 mm
11:40 AM 68.7°F20.4°C 55.2°F12.9°C 62% 2.2 mph NE3.5 kmh NE 6.0 mph9.7 kmh 29.31 in992.6 mb 0.00 in0.0 mm 0.00 in0.0 mm 0.00 in0.0 mm
11:45 AM 69.6°F20.9°C 56.0°F13.3°C 62% 6.9 mph NE11.1 kmh NE 9.8 mph15.8 kmh 29.30 in992.2 mb 0.00 in0.0 mm 0.00 in0.0 mm 0.00 in0.0 mm
11:50 AM 69.3°F20.7°C 55.7°F13.2°C 62% 5.4 mph ENE8.7 kmh ENE 9.8 mph15.8 kmh 29.30 in992.2 mb 0.00 in0.0 mm 0.00 in0.0 mm 0.00 in0.0 mm
11:55 AM 68.7°F20.4°C 55.2°F12.9°C 62% 3.8 mph E6.1 kmh E 9.8 mph15.8 kmh 29.30 in992.2 mb 0.00 in0.0 mm 0.00 in0.0 mm 0.00 in0.0 mm
12:00 PM 68.2°F20.1°C 54.7°F12.6°C 62% 2.2 mph NE3.5 kmh NE 9.8 mph15.8 kmh 29.30 in992.2 mb 0.00 in0.0 mm 0.00 in0.0 mm 0.00 in0.0 mm
12:05 PM 67.6°F19.8°C 54.2°F12.3°C 62% 4.5 mph NE7.2 kmh NE 8.3 mph13.4 kmh 29.30 in992.2 mb 0.00 in0.0 mm 0.00 in0.0 mm 0.00 in0.0 mm
12:10 PM 66.6°F19.2°C 53.2°F11.8°C 62% 3.1 mph NE5.0 kmh NE 9.2 mph14.8 kmh 29.31 in992.6 mb 0.00 in0.0 mm 0.00 in0.0 mm 0.00 in0.0 mm
12:15 PM 65.8°F18.8°C 52.5°F11.4°C 62% 1.6 mph NE2.6 kmh NE 9.2 mph14.8 kmh 29.30 in992.2 mb 0.00 in0.0 mm 0.00 in0.0 mm 0.00 in0.0 mm
12:20 PM 66.6°F19.2°C 53.2°F11.8°C 62% 0.7 mph NE1.1 kmh NE 6.9 mph11.1 kmh 29.30 in992.2 mb 0.00 in0.0 mm 0.00 in0.0 mm 0.00 in0.0 mm
12:25 PM 66.7°F19.3°C 53.3°F11.8°C 62% 6.0 mph NE9.7 kmh NE 8.3 mph13.4 kmh 29.30 in992.2 mb 0.00 in0.0 mm 0.00 in0.0 mm 0.00 in0.0 mm
12:30 PM 66.7°F19.3°C 53.3°F11.8°C 62% 3.8 mph ENE6.1 kmh ENE 14.5 mph23.3 kmh 29.31 in992.6 mb 0.00 in0.0 mm 0.00 in0.0 mm 0.00 in0.0 mm
12:35 PM 68.5°F20.3°C 55.0°F12.8°C 62% 7.6 mph E12.2 kmh E 15.9 mph25.6 kmh 29.31 in992.6 mb 0.00 in0.0 mm 0.00 in0.0 mm 0.00 in0.0 mm
12:40 PM 67.6°F19.8°C 54.2°F12.3°C 62% 9.8 mph NE15.8 kmh NE 22.1 mph35.6 kmh 29.31 in992.6 mb 0.00 in0.0 mm 0.00 in0.0 mm 0.00 in0.0 mm
12:45 PM 66.2°F19.0°C 52.8°F11.6°C 62% 6.0 mph NE9.7 kmh NE 22.1 mph35.6 kmh 29.32 in992.9 mb 0.00 in0.0 mm 0.00 in0.0 mm 0.00 in0.0 mm
12:50 PM 66.7°F19.3°C 53.3°F11.8°C 62% 5.4 mph NE8.7 kmh NE 16.8 mph27.0 kmh 29.31 in992.6 mb 0.00 in0.0 mm 0.00 in0.0 mm 0.00 in0.0 mm
12:55 PM 67.6°F19.8°C 54.2°F12.3°C 62% 5.4 mph NE8.7 kmh NE 15.2 mph24.5 kmh 29.31 in992.6 mb 0.00 in0.0 mm 0.00 in0.0 mm 0.00 in0.0 mm
01:00 PM 69.1°F20.6°C 55.5°F13.1°C 62% 1.6 mph NE2.6 kmh NE 15.2 mph24.5 kmh 29.31 in992.6 mb 0.00 in0.0 mm 0.00 in0.0 mm 0.00 in0.0 mm
01:05 PM 70.3°F21.3°C 56.7°F13.7°C 62% 8.3 mph NE13.4 kmh NE 15.9 mph25.6 kmh 29.31 in992.6 mb 0.00 in0.0 mm 0.00 in0.0 mm 0.00 in0.0 mm
01:10 PM 70.0°F21.1°C 56.4°F13.6°C 62% 18.3 mph ENE29.5 kmh ENE 28.2 mph45.4 kmh 29.30 in992.2 mb 0.00 in0.0 mm 0.00 in0.0 mm 0.00 in0.0 mm
01:15 PM 69.1°F20.6°C 55.5°F13.1°C 62% 6.9 mph E11.1 kmh E 28.2 mph45.4 kmh 29.30 in992.2 mb 0.00 in0.0 mm 0.00 in0.0 mm 0.00 in0.0 mm
01:20 PM 69.1°F20.6°C 55.5°F13.1°C 62% 6.0 mph E9.7 kmh E 28.2 mph45.4 kmh 29.31 in992.6 mb 0.00 in0.0 mm 0.00 in0.0 mm 0.00 in0.0 mm
01:25 PM 69.3°F20.7°C 55.7°F13.2°C 62% 7.6 mph NNE12.2 kmh NNE 15.2 mph24.5 kmh 29.30 in992.2 mb 0.00 in0.0 mm 0.00 in0.0 mm 0.00 in0.0 mm
01:30 PM 69.1°F20.6°C 55.5°F13.1°C 62% 13.0 mph NNE20.9 kmh NNE 17.4 mph28.0 kmh 29.31 in992.6 mb 0.00 in0.0 mm 0.00 in0.0 mm 0.00 in0.0 mm
01:35 PM 68.2°F20.1°C 54.7°F12.6°C 62% 6.9 mph NNE11.1 kmh NNE 17.4 mph28.0 kmh 29.30 in992.2 mb 0.00 in0.0 mm 0.00 in0.0 mm 0.00 in0.0 mm
01:40 PM 65.8°F18.8°C 52.5°F11.4°C 62% 10.7 mph NNE17.2 kmh NNE 22.8 mph36.7 kmh 29.33 in993.2 mb 0.01 in0.3 mm 0.12 in3.0 mm 0.01 in0.3 mm
01:45 PM 62.1°F16.7°C 48.9°F9.4°C 62% 3.8 mph NE6.1 kmh NE 22.8 mph36.7 kmh 29.32 in992.9 mb 0.04 in1.0 mm 0.36 in9.1 mm 0.04 in1.0 mm
01:50 PM 61.5°F16.4°C 48.4°F9.1°C 62% 0.7 mph NE1.1 kmh NE 9.8 mph15.8 kmh 29.32 in992.9 mb 0.04 in1.0 mm 0.00 in0.0 mm 0.04 in1.0 mm
01:55 PM 63.5°F17.5°C 50.3°F10.2°C 62% 2.2 mph NE3.5 kmh NE 4.5 mph7.2 kmh 29.31 in992.6 mb 0.04 in1.0 mm 0.00 in0.0 mm 0.04 in1.0 mm
02:00 PM 64.4°F18.0°C 51.1°F10.6°C 62% Calm Calm 4.5 mph7.2 kmh 29.31 in992.6 mb 0.04 in1.0 mm 0.00 in0.0 mm 0.04 in1.0 mm
02:05 PM 65.7°F18.7°C 52.3°F11.3°C 62% 2.2 mph NE3.5 kmh NE 4.5 mph7.2 kmh 29.31 in992.6 mb 0.04 in1.0 mm 0.00 in0.0 mm 0.04 in1.0 mm
02:10 PM 65.7°F18.7°C 52.3°F11.3°C 62% 0.7 mph NE1.1 kmh NE 4.5 mph7.2 kmh 29.32 in992.9 mb 0.04 in1.0 mm 0.00 in0.0 mm 0.04 in1.0 mm
02:15 PM 67.1°F19.5°C 53.7°F12.1°C 62% 2.2 mph NE3.5 kmh NE 4.5 mph7.2 kmh 29.32 in992.9 mb 0.04 in1.0 mm 0.00 in0.0 mm 0.04 in1.0 mm
02:20 PM 67.5°F19.7°C 54.0°F12.2°C 62% 1.6 mph NE2.6 kmh NE 5.4 mph8.7 kmh 29.32 in992.9 mb 0.04 in1.0 mm 0.00 in0.0 mm 0.04 in1.0 mm
02:25 PM 68.7°F20.4°C 55.2°F12.9°C 62% 3.8 mph NE6.1 kmh NE 8.3 mph13.4 kmh 29.31 in992.6 mb 0.04 in1.0 mm 0.00 in0.0 mm 0.04 in1.0 mm
02:30 PM 67.8°F19.9°C 54.3°F12.4°C 62% 4.5 mph NE7.2 kmh NE 9.2 mph14.8 kmh 29.30 in992.2 mb 0.04 in1.0 mm 0.00 in0.0 mm 0.04 in1.0 mm
02:35 PM 66.9°F19.4°C 53.5°F11.9°C 62% 5.4 mph NE8.7 kmh NE 9.2 mph14.8 kmh 29.32 in992.9 mb 0.04 in1.0 mm 0.00 in0.0 mm 0.04 in1.0 mm
02:40 PM 65.8°F18.8°C 52.5°F11.4°C 62% 7.6 mph NE12.2 kmh NE 11.4 mph18.3 kmh 29.32 in992.9 mb 0.00 in0.0 mm 0.00 in0.0 mm 0.04 in1.0 mm
02:45 PM 64.8°F18.2°C 51.5°F10.8°C 62% 9.2 mph NE14.8 kmh NE 15.9 mph25.6 kmh 29.33 in993.2 mb 0.00 in0.0 mm 0.00 in0.0 mm 0.04 in1.0 mm
02:50 PM 63.5°F17.5°C 50.3°F10.2°C 62% 5.4 mph NE8.7 kmh NE 19.0 mph30.6 kmh 29.33 in993.2 mb 0.00 in0.0 mm 0.00 in0.0 mm 0.04 in1.0 mm
02:55 PM 63.1°F17.3°C 49.9°F9.9°C 62% 4.5 mph NE7.2 kmh NE 19.0 mph30.6 kmh 29.33 in993.2 mb 0.00 in0.0 mm 0.00 in0.0 mm 0.04 in1.0 mm
03:00 PM 64.2°F17.9°C 50.9°F10.5°C 62% 5.4 mph NE8.7 kmh NE 13.0 mph20.9 kmh 29.34 in993.6 mb 0.00 in0.0 mm 0.00 in0.0 mm 0.04 in1.0 mm
03:05 PM 64.4°F18.0°C 51.1°F10.6°C 62% 4.5 mph NE7.2 kmh NE 10.7 mph17.2 kmh 29.34 in993.6 mb 0.00 in0.0 mm 0.00 in0.0 mm 0.04 in1.0 mm
03:10 PM 64.6°F18.1°C 51.3°F10.7°C 62% 3.1 mph NE5.0 kmh NE 10.7 mph17.2 kmh 29.34 in993.6 mb 0.00 in0.0 mm 0.00 in0.0 mm 0.04 in1.0 mm
03:15 PM 64.2°F17.9°C 50.9°F10.5°C 62% 5.4 mph NE8.7 kmh NE 18.3 mph29.5 kmh 29.34 in993.6 mb 0.00 in0.0 mm 0.00 in0.0 mm 0.04 in1.0 mm
03:20 PM 63.1°F17.3°C 49.9°F9.9°C 62% 3.1 mph NE5.0 kmh NE 18.3 mph29.5 kmh 29.34 in993.6 mb 0.00 in0.0 mm 0.00 in0.0 mm 0.04 in1.0 mm
03:25 PM 63.3°F17.4°C 50.1°F10.1°C 62% 1.6 mph NE2.6 kmh NE 11.4 mph18.3 kmh 29.34 in993.6 mb 0.00 in0.0 mm 0.00 in0.0 mm 0.04 in1.0 mm
03:30 PM 63.1°F17.3°C 49.9°F9.9°C 62% 3.1 mph NE5.0 kmh NE 6.0 mph9.7 kmh 29.34 in993.6 mb 0.00 in0.0 mm 0.00 in0.0 mm 0.04 in1.0 mm
03:35 PM 63.0°F17.2°C 49.8°F9.9°C 62% 5.4 mph NE8.7 kmh NE 10.7 mph17.2 kmh 29.35 in993.9 mb 0.00 in0.0 mm 0.00 in0.0 mm 0.04 in1.0 mm
03:40 PM 62.6°F17.0°C 49.4°F9.7°C 62% 3.1 mph NE5.0 kmh NE 12.1 mph19.5 kmh 29.34 in993.6 mb 0.00 in0.0 mm 0.00 in0.0 mm 0.04 in1.0 mm
03:45 PM 63.1°F17.3°C 49.9°F9.9°C 62% 3.1 mph NE5.0 kmh NE 12.1 mph19.5 kmh 29.35 in993.9 mb 0.00 in0.0 mm 0.00 in0.0 mm 0.04 in1.0 mm
03:50 PM 63.0°F17.2°C 49.8°F9.9°C 62% 4.5 mph NE7.2 kmh NE 7.6 mph12.2 kmh 29.34 in993.6 mb 0.00 in0.0 mm 0.00 in0.0 mm 0.04 in1.0 mm
03:55 PM 63.3°F17.4°C 50.1°F10.1°C 62% 3.1 mph NE5.0 kmh NE 9.2 mph14.8 kmh 29.35 in993.9 mb 0.00 in0.0 mm 0.00 in0.0 mm 0.04 in1.0 mm
04:00 PM 63.5°F17.5°C 50.3°F10.2°C 62% 1.6 mph NE2.6 kmh NE 9.2 mph14.8 kmh 29.35 in993.9 mb 0.00 in0.0 mm 0.00 in0.0 mm 0.04 in1.0 mm
04:05 PM 63.0°F17.2°C 49.8°F9.9°C 62% 2.2 mph NE3.5 kmh NE 6.9 mph11.1 kmh 29.35 in993.9 mb 0.00 in0.0 mm 0.00 in0.0 mm 0.04 in1.0 mm
04:10 PM 62.8°F17.1°C 49.6°F9.8°C 62% 9.8 mph NE15.8 kmh NE 11.4 mph18.3 kmh 29.35 in993.9 mb 0.00 in0.0 mm 0.00 in0.0 mm 0.04 in1.0 mm
04:15 PM 62.6°F17.0°C 49.4°F9.7°C 62% 3.1 mph NE5.0 kmh NE 11.4 mph18.3 kmh 29.35 in993.9 mb 0.00 in0.0 mm 0.00 in0.0 mm 0.04 in1.0 mm
04:20 PM 64.0°F17.8°C 50.8°F10.4°C 62% 1.6 mph NE2.6 kmh NE 11.4 mph18.3 kmh 29.35 in993.9 mb 0.00 in0.0 mm 0.00 in0.0 mm 0.04 in1.0 mm
04:25 PM 66.6°F19.2°C 53.2°F11.8°C 62% 4.5 mph NE7.2 kmh NE 6.0 mph9.7 kmh 29.35 in993.9 mb 0.00 in0.0 mm 0.00 in0.0 mm 0.04 in1.0 mm
04:30 PM 65.5°F18.6°C 52.1°F11.2°C 62% 2.2 mph NE3.5 kmh NE 7.6 mph12.2 kmh 29.35 in993.9 mb 0.00 in0.0 mm 0.00 in0.0 mm 0.04 in1.0 mm
04:35 PM 64.8°F18.2°C 51.5°F10.8°C 62% 3.1 mph NE5.0 kmh NE 9.2 mph14.8 kmh 29.35 in993.9 mb 0.00 in0.0 mm 0.00 in0.0 mm 0.04 in1.0 mm
04:40 PM 63.9°F17.7°C 50.6°F10.3°C 62% 7.6 mph NE12.2 kmh NE 11.4 mph18.3 kmh 29.35 in993.9 mb 0.00 in0.0 mm 0.00 in0.0 mm 0.04 in1.0 mm
04:45 PM 63.1°F17.3°C 49.9°F9.9°C 62% 7.6 mph NE12.2 kmh NE 11.4 mph18.3 kmh 29.35 in993.9 mb 0.00 in0.0 mm 0.00 in0.0 mm 0.04 in1.0 mm
04:50 PM 62.6°F17.0°C 49.4°F9.7°C 62% 3.8 mph NE6.1 kmh NE 10.7 mph17.2 kmh 29.35 in993.9 mb 0.00 in0.0 mm 0.00 in0.0 mm 0.04 in1.0 mm
04:55 PM 62.2°F16.8°C 49.1°F9.5°C 62% 3.8 mph NE6.1 kmh NE 10.7 mph17.2 kmh 29.36 in994.2 mb 0.00 in0.0 mm 0.00 in0.0 mm 0.04 in1.0 mm
05:00 PM 62.1°F16.7°C 48.9°F9.4°C 62% 5.4 mph NE8.7 kmh NE 11.4 mph18.3 kmh 29.36 in994.2 mb 0.00 in0.0 mm 0.00 in0.0 mm 0.04 in1.0 mm
05:05 PM 62.1°F16.7°C 48.9°F9.4°C 62% 6.9 mph NE11.1 kmh NE 13.0 mph20.9 kmh 29.37 in994.6 mb 0.00 in0.0 mm 0.00 in0.0 mm 0.04 in1.0 mm
05:10 PM 61.9°F16.6°C 48.7°F9.3°C 62% 10.7 mph ENE17.2 kmh ENE 16.8 mph27.0 kmh 29.37 in994.6 mb 0.00 in0.0 mm 0.00 in0.0 mm 0.04 in1.0 mm
05:15 PM 62.1°F16.7°C 48.9°F9.4°C 62% 6.0 mph E9.7 kmh E 16.8 mph27.0 kmh 29.37 in994.6 mb 0.00 in0.0 mm 0.00 in0.0 mm 0.04 in1.0 mm
05:20 PM 61.9°F16.6°C 48.7°F9.3°C 62% 6.9 mph E11.1 kmh E 18.3 mph29.5 kmh 29.37 in994.6 mb 0.00 in0.0 mm 0.00 in0.0 mm 0.04 in1.0 mm
05:25 PM 61.7°F16.5°C 48.6°F9.2°C 62% 7.6 mph E12.2 kmh E 18.3 mph29.5 kmh 29.38 in994.9 mb 0.00 in0.0 mm 0.00 in0.0 mm 0.04 in1.0 mm
05:30 PM 61.5°F16.4°C 48.4°F9.1°C 62% 6.9 mph E11.1 kmh E 10.7 mph17.2 kmh 29.38 in994.9 mb 0.00 in0.0 mm 0.00 in0.0 mm 0.04 in1.0 mm
05:35 PM 61.5°F16.4°C 48.4°F9.1°C 62% 11.4 mph E18.3 kmh E 14.5 mph23.3 kmh 29.38 in994.9 mb 0.00 in0.0 mm 0.00 in0.0 mm 0.04 in1.0 mm
05:40 PM 61.5°F16.4°C 48.4°F9.1°C 62% 1.6 mph E2.6 kmh E 14.5 mph23.3 kmh 29.38 in994.9 mb 0.00 in0.0 mm 0.00 in0.0 mm 0.04 in1.0 mm
05:45 PM 61.3°F16.3°C 48.2°F9.0°C 62% 5.4 mph E8.7 kmh E 14.5 mph23.3 kmh 29.38 in994.9 mb 0.00 in0.0 mm 0.00 in0.0 mm 0.04 in1.0 mm
05:50 PM 61.3°F16.3°C 48.2°F9.0°C 62% 4.5 mph E7.2 kmh E 8.3 mph13.4 kmh 29.38 in994.9 mb 0.00 in0.0 mm 0.00 in0.0 mm 0.04 in1.0 mm
05:55 PM 61.3°F16.3°C 48.2°F9.0°C 62% 10.7 mph E17.2 kmh E 13.0 mph20.9 kmh 29.39 in995.3 mb 0.00 in0.0 mm 0.00 in0.0 mm 0.04 in1.0 mm
06:00 PM 61.3°F16.3°C 48.2°F9.0°C 62% 7.6 mph E12.2 kmh E 13.6 mph21.9 kmh 29.39 in995.3 mb 0.00 in0.0 mm 0.00 in0.0 mm 0.04 in1.0 mm
06:05 PM 61.2°F16.2°C 48.1°F8.9°C 62% 7.6 mph ESE12.2 kmh ESE 13.6 mph21.9 kmh 29.39 in995.3 mb 0.00 in0.0 mm 0.00 in0.0 mm 0.04 in1.0 mm
06:10 PM 61.0°F16.1°C 47.9°F8.8°C 62% 6.0 mph SE9.7 kmh SE 13.6 mph21.9 kmh 29.40 in995.6 mb 0.00 in0.0 mm 0.00 in0.0 mm 0.04 in1.0 mm
06:15 PM 60.8°F16.0°C 47.7°F8.7°C 62% 3.1 mph SE5.0 kmh SE 10.7 mph17.2 kmh 29.40 in995.6 mb 0.00 in0.0 mm 0.00 in0.0 mm 0.04 in1.0 mm
06:20 PM 60.6°F15.9°C 47.5°F8.6°C 62% 3.1 mph SE5.0 kmh SE 8.3 mph13.4 kmh 29.41 in995.9 mb 0.00 in0.0 mm 0.00 in0.0 mm 0.04 in1.0 mm
06:25 PM 60.4°F15.8°C 47.4°F8.6°C 62% 3.1 mph SE5.0 kmh SE 7.6 mph12.2 kmh 29.41 in995.9 mb 0.00 in0.0 mm 0.00 in0.0 mm 0.04 in1.0 mm
06:30 PM 60.3°F15.7°C 47.2°F8.4°C 62% 5.4 mph SE8.7 kmh SE 9.8 mph15.8 kmh 29.41 in995.9 mb 0.00 in0.0 mm 0.00 in0.0 mm 0.04 in1.0 mm
06:35 PM 60.3°F15.7°C 47.2°F8.4°C 62% 6.0 mph SE9.7 kmh SE 12.1 mph19.5 kmh 29.41 in995.9 mb 0.00 in0.0 mm 0.00 in0.0 mm 0.04 in1.0 mm
06:40 PM 60.3°F15.7°C 47.2°F8.4°C 62% 6.0 mph SE9.7 kmh SE 12.1 mph19.5 kmh 29.41 in995.9 mb 0.00 in0.0 mm 0.00 in0.0 mm 0.04 in1.0 mm
06:45 PM 60.1°F15.6°C 47.0°F8.3°C 62% 1.6 mph SE2.6 kmh SE 9.8 mph15.8 kmh 29.41 in995.9 mb 0.00 in0.0 mm 0.00 in0.0 mm 0.04 in1.0 mm
06:50 PM 60.1°F15.6°C 47.0°F8.3°C 62% 6.9 mph SE11.1 kmh SE 9.8 mph15.8 kmh 29.42 in996.3 mb 0.00 in0.0 mm 0.00 in0.0 mm 0.04 in1.0 mm
06:55 PM 60.1°F15.6°C 47.0°F8.3°C 62% 3.8 mph SE6.1 kmh SE 11.4 mph18.3 kmh 29.42 in996.3 mb 0.00 in0.0 mm 0.00 in0.0 mm 0.04 in1.0 mm
07:00 PM 59.9°F15.5°C 46.9°F8.3°C 62% 3.8 mph SE6.1 kmh SE 11.4 mph18.3 kmh 29.42 in996.3 mb 0.00 in0.0 mm 0.00 in0.0 mm 0.04 in1.0 mm
07:05 PM 59.7°F15.4°C 46.7°F8.2°C 62% 7.6 mph S12.2 kmh S 12.1 mph19.5 kmh 29.43 in996.6 mb 0.00 in0.0 mm 0.00 in0.0 mm 0.04 in1.0 mm
07:10 PM 59.7°F15.4°C 46.7°F8.2°C 62% 3.8 mph S6.1 kmh S 12.1 mph19.5 kmh 29.43 in996.6 mb 0.00 in0.0 mm 0.00 in0.0 mm 0.04 in1.0 mm
07:15 PM 59.5°F15.3°C 46.5°F8.1°C 62% 6.0 mph S9.7 kmh S 12.1 mph19.5 kmh 29.44 in997.0 mb 0.00 in0.0 mm 0.00 in0.0 mm 0.04 in1.0 mm
07:20 PM 59.2°F15.1°C 46.2°F7.9°C 62% 3.1 mph S5.0 kmh S 19.0 mph30.6 kmh 29.43 in996.6 mb 0.00 in0.0 mm 0.00 in0.0 mm 0.04 in1.0 mm
07:25 PM 58.8°F14.9°C 45.8°F7.7°C 62% 6.9 mph S11.1 kmh S 19.0 mph30.6 kmh 29.43 in996.6 mb 0.00 in0.0 mm 0.00 in0.0 mm 0.04 in1.0 mm
07:30 PM 58.6°F14.8°C 45.7°F7.6°C 62% 3.1 mph S5.0 kmh S 12.1 mph19.5 kmh 29.43 in996.6 mb 0.00 in0.0 mm 0.00 in0.0 mm 0.04 in1.0 mm
07:35 PM 58.5°F14.7°C 45.5°F7.5°C 62% 3.8 mph S6.1 kmh S 12.1 mph19.5 kmh 29.43 in996.6 mb 0.00 in0.0 mm 0.00 in0.0 mm 0.04 in1.0 mm
07:40 PM 58.6°F14.8°C 45.7°F7.6°C 62% 2.2 mph S3.5 kmh S 6.0 mph9.7 kmh 29.44 in997.0 mb 0.00 in0.0 mm 0.00 in0.0 mm 0.04 in1.0 mm
07:45 PM 58.6°F14.8°C 45.7°F7.6°C 62% Calm Calm 6.0 mph9.7 kmh 29.44 in997.0 mb 0.00 in0.0 mm 0.00 in0.0 mm 0.04 in1.0 mm
07:50 PM 58.8°F14.9°C 45.8°F7.7°C 62% 1.6 mph S2.6 kmh S 3.1 mph5.0 kmh 29.43 in996.6 mb 0.00 in0.0 mm 0.00 in0.0 mm 0.04 in1.0 mm
07:55 PM 58.6°F14.8°C 45.7°F7.6°C 62% 0.7 mph S1.1 kmh S 3.1 mph5.0 kmh 29.44 in997.0 mb 0.00 in0.0 mm 0.00 in0.0 mm 0.04 in1.0 mm
08:00 PM 58.5°F14.7°C 45.5°F7.5°C 62% 2.2 mph S3.5 kmh S 3.1 mph5.0 kmh 29.44 in997.0 mb 0.00 in0.0 mm 0.00 in0.0 mm 0.04 in1.0 mm
08:05 PM 58.5°F14.7°C 45.5°F7.5°C 62% 1.6 mph S2.6 kmh S 3.1 mph5.0 kmh 29.44 in997.0 mb 0.00 in0.0 mm 0.00 in0.0 mm 0.04 in1.0 mm
08:10 PM 58.3°F14.6°C 45.3°F7.4°C 62% 1.6 mph S2.6 kmh S 3.1 mph5.0 kmh 29.45 in997.3 mb 0.00 in0.0 mm 0.00 in0.0 mm 0.04 in1.0 mm
08:15 PM 57.9°F14.4°C 45.0°F7.2°C 62% 3.1 mph S5.0 kmh S 6.0 mph9.7 kmh 29.46 in997.6 mb 0.00 in0.0 mm 0.00 in0.0 mm 0.04 in1.0 mm
08:20 PM 58.3°F14.6°C 45.3°F7.4°C 62% 3.8 mph S6.1 kmh S 10.7 mph17.2 kmh 29.45 in997.3 mb 0.00 in0.0 mm 0.00 in0.0 mm 0.04 in1.0 mm
08:25 PM 58.3°F14.6°C 45.3°F7.4°C 62% 6.0 mph S9.7 kmh S 15.2 mph24.5 kmh 29.46 in997.6 mb 0.00 in0.0 mm 0.00 in0.0 mm 0.04 in1.0 mm
08:30 PM 58.5°F14.7°C 45.5°F7.5°C 62% 6.0 mph S9.7 kmh S 15.2 mph24.5 kmh 29.47 in998.0 mb 0.00 in0.0 mm 0.00 in0.0 mm 0.04 in1.0 mm
08:35 PM 58.3°F14.6°C 45.3°F7.4°C 62% 3.1 mph SSW5.0 kmh SSW 13.0 mph20.9 kmh 29.46 in997.6 mb 0.00 in0.0 mm 0.00 in0.0 mm 0.04 in1.0 mm
08:40 PM 58.3°F14.6°C 45.3°F7.4°C 62% 3.8 mph SSW6.1 kmh SSW 10.7 mph17.2 kmh 29.46 in997.6 mb 0.00 in0.0 mm 0.00 in0.0 mm 0.04 in1.0 mm
08:45 PM 58.3°F14.6°C 45.3°F7.4°C 62% 6.0 mph S9.7 kmh S 10.7 mph17.2 kmh 29.47 in998.0 mb 0.00 in0.0 mm 0.00 in0.0 mm 0.04 in1.0 mm
08:50 PM 58.3°F14.6°C 45.3°F7.4°C 62% 6.9 mph SSW11.1 kmh SSW 12.1 mph19.5 kmh 29.47 in998.0 mb 0.00 in0.0 mm 0.00 in0.0 mm 0.04 in1.0 mm
08:55 PM 58.3°F14.6°C 45.3°F7.4°C 62% 3.8 mph SW6.1 kmh SW 12.1 mph19.5 kmh 29.47 in998.0 mb 0.00 in0.0 mm 0.00 in0.0 mm 0.04 in1.0 mm
09:00 PM 58.3°F14.6°C 45.3°F7.4°C 62% 1.6 mph SW2.6 kmh SW 11.4 mph18.3 kmh 29.46 in997.6 mb 0.00 in0.0 mm 0.00 in0.0 mm 0.04 in1.0 mm
09:05 PM 58.1°F14.5°C 45.2°F7.3°C 62% 4.5 mph SW7.2 kmh SW 8.3 mph13.4 kmh 29.47 in998.0 mb 0.00 in0.0 mm 0.00 in0.0 mm 0.04 in1.0 mm
09:10 PM 57.9°F14.4°C 45.0°F7.2°C 62% 1.6 mph SW2.6 kmh SW 8.3 mph13.4 kmh 29.47 in998.0 mb 0.00 in0.0 mm 0.00 in0.0 mm 0.04 in1.0 mm
09:15 PM 57.7°F14.3°C 44.8°F7.1°C 62% 1.6 mph SW2.6 kmh SW 6.0 mph9.7 kmh 29.47 in998.0 mb 0.00 in0.0 mm 0.00 in0.0 mm 0.04 in1.0 mm
09:20 PM 57.7°F14.3°C 44.8°F7.1°C 62% Calm Calm 2.2 mph3.5 kmh 29.46 in997.6 mb 0.00 in0.0 mm 0.00 in0.0 mm 0.04 in1.0 mm
09:25 PM 57.6°F14.2°C 44.7°F7.1°C 62% 2.2 mph SW3.5 kmh SW 3.8 mph6.1 kmh 29.47 in998.0 mb 0.00 in0.0 mm 0.00 in0.0 mm 0.04 in1.0 mm
09:30 PM 57.2°F14.0°C 44.3°F6.8°C 62% 1.6 mph SW2.6 kmh SW 3.8 mph6.1 kmh 29.47 in998.0 mb 0.00 in0.0 mm 0.00 in0.0 mm 0.04 in1.0 mm
09:35 PM 57.0°F13.9°C 44.1°F6.7°C 62% 0.7 mph SW1.1 kmh SW 3.8 mph6.1 kmh 29.47 in998.0 mb 0.00 in0.0 mm 0.00 in0.0 mm 0.04 in1.0 mm
09:40 PM 56.8°F13.8°C 44.0°F6.7°C 62% 2.2 mph SW3.5 kmh SW 5.4 mph8.7 kmh 29.47 in998.0 mb 0.00 in0.0 mm 0.00 in0.0 mm 0.04 in1.0 mm
09:45 PM 56.7°F13.7°C 43.8°F6.6°C 62% 5.4 mph SW8.7 kmh SW 6.0 mph9.7 kmh 29.47 in998.0 mb 0.00 in0.0 mm 0.00 in0.0 mm 0.04 in1.0 mm
09:50 PM 56.7°F13.7°C 43.8°F6.6°C 62% Calm Calm 6.0 mph9.7 kmh 29.47 in998.0 mb 0.00 in0.0 mm 0.00 in0.0 mm 0.04 in1.0 mm
09:55 PM 56.5°F13.6°C 43.6°F6.4°C 62% 0.7 mph SW1.1 kmh SW 6.0 mph9.7 kmh 29.47 in998.0 mb 0.00 in0.0 mm 0.00 in0.0 mm 0.04 in1.0 mm
10:00 PM 56.5°F13.6°C 43.6°F6.4°C 62% 1.6 mph SW2.6 kmh SW 3.1 mph5.0 kmh 29.47 in998.0 mb 0.00 in0.0 mm 0.00 in0.0 mm 0.04 in1.0 mm
10:05 PM 56.5°F13.6°C 43.6°F6.4°C 62% 3.1 mph SW5.0 kmh SW 4.5 mph7.2 kmh 29.47 in998.0 mb 0.00 in0.0 mm 0.00 in0.0 mm 0.04 in1.0 mm
10:10 PM 55.9°F13.3°C 43.1°F6.2°C 62% 2.2 mph SSW3.5 kmh SSW 6.9 mph11.1 kmh 29.48 in998.3 mb 0.00 in0.0 mm 0.00 in0.0 mm 0.04 in1.0 mm
10:15 PM 55.9°F13.3°C 43.1°F6.2°C 62% Calm Calm 6.9 mph11.1 kmh 29.48 in998.3 mb 0.00 in0.0 mm 0.00 in0.0 mm 0.04 in1.0 mm
10:20 PM 56.1°F13.4°C 43.3°F6.3°C 62% 1.6 mph SSW2.6 kmh SSW 4.5 mph7.2 kmh 29.48 in998.3 mb 0.00 in0.0 mm 0.00 in0.0 mm 0.04 in1.0 mm
10:25 PM 56.3°F13.5°C 43.5°F6.4°C 62% 1.6 mph S2.6 kmh S 3.8 mph6.1 kmh 29.48 in998.3 mb 0.00 in0.0 mm 0.00 in0.0 mm 0.04 in1.0 mm
10:30 PM 56.3°F13.5°C 43.5°F6.4°C 62% 3.1 mph S5.0 kmh S 4.5 mph7.2 kmh 29.47 in998.0 mb 0.00 in0.0 mm 0.00 in0.0 mm 0.04 in1.0 mm
10:35 PM 56.7°F13.7°C 43.8°F6.6°C 62% 1.6 mph SSW2.6 kmh SSW 4.5 mph7.2 kmh 29.47 in998.0 mb 0.00 in0.0 mm 0.00 in0.0 mm 0.04 in1.0 mm
10:40 PM 57.2°F14.0°C 44.3°F6.8°C 62% 4.5 mph SW7.2 kmh SW 6.9 mph11.1 kmh 29.47 in998.0 mb 0.00 in0.0 mm 0.00 in0.0 mm 0.04 in1.0 mm
10:50 PM 55.8°F13.2°C 42.9°F6.1°C 62% 1.6 mph SW2.6 kmh SW 6.9 mph11.1 kmh 29.47 in998.0 mb 0.00 in0.0 mm 0.00 in0.0 mm 0.04 in1.0 mm
10:55 PM 55.2°F12.9°C 42.4°F5.8°C 62% 0.7 mph SW1.1 kmh SW 3.8 mph6.1 kmh 29.48 in998.3 mb 0.00 in0.0 mm 0.00 in0.0 mm 0.04 in1.0 mm
11:00 PM 55.0°F12.8°C 42.3°F5.7°C 62% 1.6 mph SW2.6 kmh SW 3.8 mph6.1 kmh 29.48 in998.3 mb 0.00 in0.0 mm 0.00 in0.0 mm 0.04 in1.0 mm
11:05 PM 54.7°F12.6°C 41.9°F5.5°C 62% 1.6 mph SW2.6 kmh SW 3.8 mph6.1 kmh 29.49 in998.6 mb 0.00 in0.0 mm 0.00 in0.0 mm 0.04 in1.0 mm
11:10 PM 54.5°F12.5°C 41.8°F5.4°C 62% 1.6 mph SW2.6 kmh SW 3.1 mph5.0 kmh 29.50 in999.0 mb 0.00 in0.0 mm 0.00 in0.0 mm 0.04 in1.0 mm
11:15 PM 54.3°F12.4°C 41.6°F5.3°C 62% 3.8 mph SW6.1 kmh SW 4.5 mph7.2 kmh 29.50 in999.0 mb 0.00 in0.0 mm 0.00 in0.0 mm 0.04 in1.0 mm
11:20 PM 54.0°F12.2°C 41.2°F5.1°C 62% 3.1 mph SW5.0 kmh SW 4.5 mph7.2 kmh 29.50 in999.0 mb 0.00 in0.0 mm 0.00 in0.0 mm 0.04 in1.0 mm
11:25 PM 53.6°F12.0°C 40.9°F4.9°C 62% 4.5 mph SW7.2 kmh SW 5.4 mph8.7 kmh 29.50 in999.0 mb 0.00 in0.0 mm 0.00 in0.0 mm 0.04 in1.0 mm
11:30 PM 53.4°F11.9°C 40.7°F4.8°C 62% 1.6 mph SW2.6 kmh SW 5.4 mph8.7 kmh 29.50 in999.0 mb 0.00 in0.0 mm 0.00 in0.0 mm 0.04 in1.0 mm
11:35 PM 53.2°F11.8°C 40.6°F4.8°C 62% 1.6 mph SW2.6 kmh SW 5.4 mph8.7 kmh 29.50 in999.0 mb 0.00 in0.0 mm 0.00 in0.0 mm 0.04 in1.0 mm
11:40 PM 52.9°F11.6°C 40.2°F4.6°C 62% 2.2 mph SW3.5 kmh SW 3.8 mph6.1 kmh 29.50 in999.0 mb 0.00 in0.0 mm 0.00 in0.0 mm 0.04 in1.0 mm
11:45 PM 52.5°F11.4°C 39.9°F4.4°C 62% Calm Calm 4.5 mph7.2 kmh 29.50 in999.0 mb 0.00 in0.0 mm 0.00 in0.0 mm 0.04 in1.0 mm
11:50 PM 52.5°F11.4°C 39.9°F4.4°C 62% Calm Calm 4.5 mph7.2 kmh 29.51 in999.3 mb 0.00 in0.0 mm 0.00 in0.0 mm 0.04 in1.0 mm
11:55 PM 52.3°F11.3°C 39.7°F4.3°C 62% 1.6 mph SW2.6 kmh SW 3.1 mph5.0 kmh 29.50 in999.0 mb 0.00 in0.0 mm 0.00 in0.0 mm 0.04 in1.0 mm